sensor_id;sensor_type;location;lat;lon;timestamp;P1;durP1;ratioP1;P2;durP2;ratioP2
74912;SDS011;63878;55.624;37.304;2023-03-21T00:06:54;6.55;;;2.60;;
74912;SDS011;63878;55.624;37.304;2023-03-21T00:16:54;6.28;;;2.67;;
74912;SDS011;63878;55.624;37.304;2023-03-21T00:26:55;5.63;;;2.78;;
74912;SDS011;63878;55.624;37.304;2023-03-21T00:36:56;6.63;;;2.42;;
74912;SDS011;63878;55.624;37.304;2023-03-21T00:46:56;3.45;;;2.30;;
74912;SDS011;63878;55.624;37.304;2023-03-21T00:56:57;5.05;;;2.63;;
74912;SDS011;63878;55.624;37.304;2023-03-21T01:06:58;5.90;;;1.95;;
74912;SDS011;63878;55.624;37.304;2023-03-21T01:16:59;8.02;;;2.85;;
74912;SDS011;63878;55.624;37.304;2023-03-21T01:27:00;6.53;;;2.17;;
74912;SDS011;63878;55.624;37.304;2023-03-21T01:37:01;4.47;;;2.80;;
74912;SDS011;63878;55.624;37.304;2023-03-21T01:47:02;6.93;;;3.05;;
74912;SDS011;63878;55.624;37.304;2023-03-21T01:57:03;7.32;;;2.85;;
74912;SDS011;63878;55.624;37.304;2023-03-21T02:07:12;9.00;;;3.25;;
74912;SDS011;63878;55.624;37.304;2023-03-21T02:27:48;7.60;;;3.47;;
74912;SDS011;63878;55.624;37.304;2023-03-21T02:38:06;7.38;;;3.45;;
74912;SDS011;63878;55.624;37.304;2023-03-21T02:48:11;9.10;;;3.30;;
74912;SDS011;63878;55.624;37.304;2023-03-21T02:58:16;9.13;;;3.53;;
74912;SDS011;63878;55.624;37.304;2023-03-21T03:08:36;9.40;;;4.53;;
74912;SDS011;63878;55.624;37.304;2023-03-21T03:28:55;8.82;;;4.68;;
74912;SDS011;63878;55.624;37.304;2023-03-21T03:38:59;8.15;;;4.03;;
74912;SDS011;63878;55.624;37.304;2023-03-21T03:49:04;10.25;;;5.53;;
74912;SDS011;63878;55.624;37.304;2023-03-21T03:59:11;11.50;;;6.03;;
74912;SDS011;63878;55.624;37.304;2023-03-21T04:09:11;12.57;;;4.90;;
74912;SDS011;63878;55.624;37.304;2023-03-21T04:19:12;10.65;;;4.95;;
74912;SDS011;63878;55.624;37.304;2023-03-21T04:29:12;10.30;;;5.23;;
74912;SDS011;63878;55.624;37.304;2023-03-21T04:39:13;9.27;;;5.07;;
74912;SDS011;63878;55.624;37.304;2023-03-21T04:49:13;9.67;;;5.37;;
74912;SDS011;63878;55.624;37.304;2023-03-21T04:59:14;11.27;;;4.93;;
74912;SDS011;63878;55.624;37.304;2023-03-21T05:09:15;10.27;;;5.28;;
74912;SDS011;63878;55.624;37.304;2023-03-21T05:19:16;12.88;;;6.05;;
74912;SDS011;63878;55.624;37.304;2023-03-21T05:29:17;11.40;;;5.90;;
74912;SDS011;63878;55.624;37.304;2023-03-21T05:39:18;13.70;;;5.70;;
74912;SDS011;63878;55.624;37.304;2023-03-21T05:49:20;14.02;;;6.63;;
74912;SDS011;63878;55.624;37.304;2023-03-21T05:59:20;13.05;;;6.57;;
74912;SDS011;63878;55.624;37.304;2023-03-21T06:09:22;13.18;;;6.82;;
74912;SDS011;63878;55.624;37.304;2023-03-21T06:19:23;16.85;;;7.43;;
74912;SDS011;63878;55.624;37.304;2023-03-21T06:29:25;16.77;;;8.50;;
74912;SDS011;63878;55.624;37.304;2023-03-21T06:39:25;15.90;;;7.55;;
74912;SDS011;63878;55.624;37.304;2023-03-21T06:49:26;15.35;;;7.85;;
74912;SDS011;63878;55.624;37.304;2023-03-21T06:59:26;13.13;;;6.80;;
74912;SDS011;63878;55.624;37.304;2023-03-21T07:09:27;15.00;;;8.50;;
74912;SDS011;63878;55.624;37.304;2023-03-21T07:19:28;12.95;;;7.22;;
74912;SDS011;63878;55.624;37.304;2023-03-21T07:29:28;14.45;;;7.18;;
74912;SDS011;63878;55.624;37.304;2023-03-21T07:39:29;12.65;;;7.03;;
74912;SDS011;63878;55.624;37.304;2023-03-21T07:49:30;16.30;;;7.22;;
74912;SDS011;63878;55.624;37.304;2023-03-21T07:59:31;13.30;;;6.60;;
74912;SDS011;63878;55.624;37.304;2023-03-21T08:09:31;16.00;;;7.75;;
74912;SDS011;63878;55.624;37.304;2023-03-21T08:19:32;14.00;;;7.60;;
74912;SDS011;63878;55.624;37.304;2023-03-21T08:29:33;10.60;;;4.87;;
74912;SDS011;63878;55.624;37.304;2023-03-21T08:39:33;8.43;;;4.47;;
74912;SDS011;63878;55.624;37.304;2023-03-21T08:49:34;7.83;;;4.50;;
74912;SDS011;63878;55.624;37.304;2023-03-21T08:59:35;8.55;;;4.15;;
74912;SDS011;63878;55.624;37.304;2023-03-21T09:09:37;6.65;;;4.15;;
74912;SDS011;63878;55.624;37.304;2023-03-21T09:19:38;4.72;;;2.92;;
74912;SDS011;63878;55.624;37.304;2023-03-21T09:29:42;7.10;;;3.50;;
74912;SDS011;63878;55.624;37.304;2023-03-21T09:39:43;4.70;;;2.60;;
74912;SDS011;63878;55.624;37.304;2023-03-21T09:49:44;4.25;;;2.80;;
74912;SDS011;63878;55.624;37.304;2023-03-21T09:59:47;3.97;;;2.33;;
74912;SDS011;63878;55.624;37.304;2023-03-21T10:09:51;3.70;;;2.53;;
74912;SDS011;63878;55.624;37.304;2023-03-21T10:19:56;4.20;;;2.70;;
74912;SDS011;63878;55.624;37.304;2023-03-21T10:30:07;4.78;;;2.58;;
74912;SDS011;63878;55.624;37.304;2023-03-21T10:40:17;6.20;;;3.30;;
74912;SDS011;63878;55.624;37.304;2023-03-21T10:50:18;6.53;;;2.60;;
74912;SDS011;63878;55.624;37.304;2023-03-21T11:00:20;4.95;;;2.35;;
74912;SDS011;63878;55.624;37.304;2023-03-21T11:10:31;4.15;;;3.00;;
74912;SDS011;63878;55.624;37.304;2023-03-21T11:20:34;5.07;;;2.47;;
74912;SDS011;63878;55.624;37.304;2023-03-21T11:40:56;4.93;;;2.63;;
74912;SDS011;63878;55.624;37.304;2023-03-21T11:51:03;4.68;;;2.85;;
74912;SDS011;63878;55.624;37.304;2023-03-21T12:01:15;3.33;;;1.83;;
74912;SDS011;63878;55.624;37.304;2023-03-21T12:52:43;5.00;;;2.78;;
74912;SDS011;63878;55.624;37.304;2023-03-21T13:03:02;4.60;;;2.45;;
74912;SDS011;63878;55.624;37.304;2023-03-21T13:23:38;5.47;;;2.70;;
74912;SDS011;63878;55.624;37.304;2023-03-21T13:33:39;4.27;;;2.63;;
74912;SDS011;63878;55.624;37.304;2023-03-21T13:54:00;4.72;;;2.28;;
74912;SDS011;63878;55.624;37.304;2023-03-21T14:04:11;4.72;;;2.60;;
74912;SDS011;63878;55.624;37.304;2023-03-21T14:14:20;3.63;;;2.47;;
74912;SDS011;63878;55.624;37.304;2023-03-21T14:24:23;4.32;;;2.40;;
74912;SDS011;63878;55.624;37.304;2023-03-21T14:34:24;3.58;;;2.30;;
74912;SDS011;63878;55.624;37.304;2023-03-21T14:44:47;3.90;;;2.38;;
74912;SDS011;63878;55.624;37.304;2023-03-21T14:54:50;3.47;;;2.42;;
74912;SDS011;63878;55.624;37.304;2023-03-21T15:04:52;4.15;;;1.70;;
74912;SDS011;63878;55.624;37.304;2023-03-21T15:14:56;4.38;;;3.28;;
74912;SDS011;63878;55.624;37.304;2023-03-21T15:25:02;4.22;;;2.88;;
74912;SDS011;63878;55.624;37.304;2023-03-21T15:35:07;4.10;;;2.28;;
74912;SDS011;63878;55.624;37.304;2023-03-21T15:45:19;5.28;;;2.90;;
74912;SDS011;63878;55.624;37.304;2023-03-21T15:55:44;5.05;;;2.78;;
74912;SDS011;63878;55.624;37.304;2023-03-21T16:16:30;5.35;;;2.72;;
74912;SDS011;63878;55.624;37.304;2023-03-21T16:26:32;6.80;;;3.60;;
74912;SDS011;63878;55.624;37.304;2023-03-21T16:36:36;5.22;;;2.95;;
74912;SDS011;63878;55.624;37.304;2023-03-21T16:46:38;6.38;;;3.65;;
74912;SDS011;63878;55.624;37.304;2023-03-21T16:56:40;7.25;;;4.32;;
74912;SDS011;63878;55.624;37.304;2023-03-21T17:06:47;7.15;;;3.72;;
74912;SDS011;63878;55.624;37.304;2023-03-21T17:16:50;9.02;;;4.30;;
74912;SDS011;63878;55.624;37.304;2023-03-21T17:26:50;7.45;;;4.40;;
74912;SDS011;63878;55.624;37.304;2023-03-21T17:36:51;9.57;;;4.97;;
74912;SDS011;63878;55.624;37.304;2023-03-21T17:46:51;11.38;;;6.88;;
74912;SDS011;63878;55.624;37.304;2023-03-21T17:56:52;15.80;;;8.52;;
74912;SDS011;63878;55.624;37.304;2023-03-21T18:06:52;19.98;;;10.75;;
74912;SDS011;63878;55.624;37.304;2023-03-21T18:16:53;22.20;;;11.90;;
74912;SDS011;63878;55.624;37.304;2023-03-21T18:26:54;20.75;;;12.45;;
74912;SDS011;63878;55.624;37.304;2023-03-21T18:36:55;25.55;;;12.85;;
74912;SDS011;63878;55.624;37.304;2023-03-21T18:46:55;23.25;;;14.15;;
74912;SDS011;63878;55.624;37.304;2023-03-21T18:56:57;22.48;;;12.57;;
74912;SDS011;63878;55.624;37.304;2023-03-21T19:06:57;24.00;;;12.27;;
74912;SDS011;63878;55.624;37.304;2023-03-21T19:16:58;21.80;;;12.50;;
74912;SDS011;63878;55.624;37.304;2023-03-21T19:26:59;24.13;;;13.00;;
74912;SDS011;63878;55.624;37.304;2023-03-21T19:36:59;21.80;;;12.00;;
74912;SDS011;63878;55.624;37.304;2023-03-21T19:47:00;19.33;;;10.70;;
74912;SDS011;63878;55.624;37.304;2023-03-21T19:57:01;20.23;;;10.45;;
74912;SDS011;63878;55.624;37.304;2023-03-21T20:07:03;18.65;;;10.00;;
74912;SDS011;63878;55.624;37.304;2023-03-21T20:17:04;19.25;;;9.57;;
74912;SDS011;63878;55.624;37.304;2023-03-21T20:27:04;16.53;;;9.80;;
74912;SDS011;63878;55.624;37.304;2023-03-21T20:37:05;15.35;;;9.02;;
74912;SDS011;63878;55.624;37.304;2023-03-21T20:47:05;14.05;;;7.85;;
74912;SDS011;63878;55.624;37.304;2023-03-21T20:57:06;12.20;;;7.20;;
74912;SDS011;63878;55.624;37.304;2023-03-21T21:07:11;11.93;;;7.10;;
74912;SDS011;63878;55.624;37.304;2023-03-21T21:17:11;13.95;;;6.43;;
74912;SDS011;63878;55.624;37.304;2023-03-21T21:27:12;12.35;;;6.72;;
74912;SDS011;63878;55.624;37.304;2023-03-21T21:37:13;11.63;;;5.90;;
74912;SDS011;63878;55.624;37.304;2023-03-21T21:47:14;12.03;;;6.77;;
74912;SDS011;63878;55.624;37.304;2023-03-21T21:57:15;11.87;;;7.33;;
74912;SDS011;63878;55.624;37.304;2023-03-21T22:07:16;12.65;;;6.43;;
74912;SDS011;63878;55.624;37.304;2023-03-21T22:17:16;11.68;;;6.53;;
74912;SDS011;63878;55.624;37.304;2023-03-21T22:27:17;11.40;;;5.90;;
74912;SDS011;63878;55.624;37.304;2023-03-21T22:37:18;12.98;;;6.55;;
74912;SDS011;63878;55.624;37.304;2023-03-21T22:47:19;12.60;;;6.15;;
74912;SDS011;63878;55.624;37.304;2023-03-21T22:57:20;10.57;;;6.07;;
74912;SDS011;63878;55.624;37.304;2023-03-21T23:07:20;11.40;;;6.90;;
74912;SDS011;63878;55.624;37.304;2023-03-21T23:17:21;14.38;;;6.78;;
74912;SDS011;63878;55.624;37.304;2023-03-21T23:27:21;12.07;;;6.10;;
74912;SDS011;63878;55.624;37.304;2023-03-21T23:37:22;12.73;;;6.97;;
74912;SDS011;63878;55.624;37.304;2023-03-21T23:47:23;14.10;;;6.95;;
74912;SDS011;63878;55.624;37.304;2023-03-21T23:57:24;13.57;;;7.03;;
